createdAt,value
2023-02-05T00:00:46.660Z,100998.09
2023-02-05T00:01:48.219Z,100992.03
2023-02-05T00:02:49.739Z,100991.13
2023-02-05T00:03:51.349Z,100984.19
2023-02-05T00:04:52.933Z,100991.91
2023-02-05T00:05:54.408Z,100984.16
2023-02-05T00:06:55.902Z,100988.44
2023-02-05T00:07:57.456Z,100992.84
2023-02-05T00:08:58.965Z,100992.03
2023-02-05T00:10:00.549Z,100992.03
2023-02-05T00:11:02.104Z,100992.88
2023-02-05T00:12:03.775Z,100991.97
2023-02-05T00:13:05.301Z,100998.81
2023-02-05T00:14:07.011Z,100993.69
2023-02-05T00:15:09.075Z,100993.72
2023-02-05T00:16:13.708Z,100996.25
2023-02-05T00:17:15.268Z,100994.53
2023-02-05T00:18:16.775Z,100987.63
2023-02-05T00:19:18.771Z,100991.97
2023-02-05T00:20:20.425Z,100991.09
2023-02-05T00:21:23.211Z,100990.31
2023-02-05T00:22:24.757Z,100992.84
2023-02-05T00:23:26.286Z,100992.91
2023-02-05T00:24:27.805Z,100988.50
2023-02-05T00:25:29.547Z,100989.41
2023-02-05T00:26:31.500Z,100985.19
2023-02-05T00:27:33.683Z,100990.31
2023-02-05T00:28:36.072Z,100998.91
2023-02-05T00:29:37.736Z,100990.31
2023-02-05T00:30:41.073Z,100992.94
2023-02-05T00:31:42.824Z,100995.50
2023-02-05T00:32:44.386Z,100996.31
2023-02-05T00:33:47.250Z,100994.63
2023-02-05T00:34:48.869Z,101002.38
2023-02-05T00:35:50.456Z,100992.00
2023-02-05T00:36:51.960Z,100990.25
2023-02-05T00:37:53.438Z,100992.81
2023-02-05T00:38:54.958Z,100990.41
2023-02-05T00:39:56.484Z,100999.88
2023-02-05T00:40:58.152Z,100995.56
2023-02-05T00:41:59.815Z,100995.53
2023-02-05T00:43:01.317Z,100995.66
2023-02-05T00:44:02.908Z,100999.94
2023-02-05T00:45:04.736Z,100993.94
2023-02-05T00:46:07.308Z,100989.59
2023-02-05T00:47:08.799Z,100988.84
2023-02-05T00:48:10.371Z,100993.09
2023-02-05T00:49:11.867Z,100997.34
2023-02-05T00:50:13.419Z,100989.59
2023-02-05T00:51:15.614Z,100992.16
2023-02-05T00:52:17.163Z,100994.78
2023-02-05T00:53:19.949Z,100992.16
2023-02-05T00:54:21.733Z,100994.75
2023-02-05T00:55:23.626Z,100992.16
2023-02-05T00:56:25.138Z,100990.44
2023-02-05T00:57:26.754Z,100987.84
2023-02-05T00:58:28.305Z,100987.81
2023-02-05T00:59:29.939Z,100990.47
2023-02-05T01:00:32.380Z,100989.59
2023-02-05T01:01:34.972Z,100993.00
2023-02-05T01:02:36.624Z,100998.22
2023-02-05T01:03:38.943Z,100987.03
2023-02-05T01:04:40.440Z,100991.28
2023-02-05T01:05:42.336Z,100994.78
2023-02-05T01:06:44.115Z,100988.78
2023-02-05T01:07:46.561Z,100989.66
2023-02-05T01:08:48.090Z,100986.25
2023-02-05T01:09:49.732Z,100988.91
2023-02-05T01:10:51.747Z,100983.75
2023-02-05T01:11:53.284Z,100977.78
2023-02-05T01:12:54.856Z,100981.22
2023-02-05T01:13:56.373Z,100978.66
2023-02-05T01:14:58.058Z,100979.59
2023-02-05T01:15:59.756Z,100983.00
2023-02-05T01:17:01.330Z,100982.13
2023-02-05T01:18:02.972Z,100974.41
2023-02-05T01:19:04.572Z,100979.56
2023-02-05T01:20:07.009Z,100980.41
2023-02-05T01:21:08.526Z,100978.69
2023-02-05T01:22:10.094Z,100976.09
2023-02-05T01:23:11.866Z,100988.13
2023-02-05T01:24:13.477Z,100982.09
2023-02-05T01:25:15.118Z,100977.78
2023-02-05T01:26:17.633Z,100976.88
2023-02-05T01:27:19.201Z,100978.56
2023-02-05T01:28:20.717Z,100977.69
2023-02-05T01:29:23.221Z,100979.41
2023-02-05T01:30:24.970Z,100978.53
2023-02-05T01:31:26.771Z,100965.66
2023-02-05T01:32:29.488Z,100975.13
2023-02-05T01:33:31.074Z,100970.00
2023-02-05T01:34:32.630Z,100982.91
2023-02-05T01:35:34.432Z,100978.53
2023-02-05T01:36:37.144Z,100989.72
2023-02-05T01:37:38.679Z,100984.53
2023-02-05T01:38:40.252Z,100984.53
2023-02-05T01:39:41.943Z,100979.38
2023-02-05T01:40:43.461Z,100984.53
2023-02-05T01:41:45.153Z,100988.84
2023-02-05T01:42:47.056Z,100989.69
2023-02-05T01:44:09.068Z,100986.22
2023-02-05T01:45:22.660Z,100987.06
2023-02-05T01:46:29.354Z,100981.88
2023-02-05T01:47:30.876Z,100986.16
2023-02-05T01:48:42.348Z,100987.84
2023-02-05T01:49:44.063Z,100992.13
2023-02-05T01:50:50.484Z,100988.75
2023-02-05T01:51:54.643Z,100987.91
2023-02-05T01:52:59.245Z,100987.03
2023-02-05T01:54:01.285Z,100986.16
2023-02-05T01:55:05.521Z,100986.16
2023-02-05T01:56:14.744Z,100987.88
2023-02-05T01:57:23.686Z,100980.09
2023-02-05T01:58:29.628Z,100989.59
2023-02-05T01:59:35.856Z,100988.72
2023-02-05T02:00:37.485Z,100987.00
2023-02-05T02:01:39.688Z,100994.72
2023-02-05T02:02:41.761Z,100995.59
2023-02-05T02:03:44.305Z,100991.28
2023-02-05T02:04:50.244Z,100995.50
2023-02-05T02:05:51.772Z,100992.97
2023-02-05T02:06:53.573Z,100994.72
2023-02-05T02:07:55.090Z,100996.47
2023-02-05T02:08:57.517Z,100994.69
2023-02-05T02:09:59.310Z,100992.94
2023-02-05T02:11:04.591Z,100996.41
2023-02-05T02:12:09.264Z,100990.34
2023-02-05T02:13:12.534Z,100992.94
2023-02-05T02:14:15.380Z,100997.25
2023-02-05T02:15:23.887Z,100998.97
2023-02-05T02:16:27.465Z,101004.16
2023-02-05T02:17:30.686Z,100998.13
2023-02-05T02:18:34.778Z,100992.94
2023-02-05T02:19:48.427Z,100998.97
2023-02-05T02:21:16.050Z,100997.25
2023-02-05T02:22:41.841Z,100997.22
2023-02-05T02:24:22.723Z,101002.38
2023-02-05T02:25:59.986Z,100998.13
2023-02-05T02:27:23.021Z,100993.00
2023-02-05T02:28:45.748Z,101004.13
2023-02-05T02:29:56.891Z,101006.69
2023-02-05T02:31:02.022Z,101001.50
2023-02-05T02:32:28.781Z,100997.22
2023-02-05T02:34:01.290Z,100998.91
2023-02-05T02:35:17.421Z,100998.06
2023-02-05T02:36:29.388Z,101005.84
2023-02-05T02:37:37.645Z,100999.78
2023-02-05T02:38:47.040Z,101002.50
2023-02-05T02:40:00.312Z,101004.16
2023-02-05T02:41:14.594Z,101001.56
2023-02-05T02:42:25.460Z,101001.50
2023-02-05T02:43:30.234Z,101003.22
2023-02-05T02:44:35.002Z,101010.09
2023-02-05T02:45:46.238Z,101007.50
2023-02-05T02:46:54.605Z,101004.91
2023-02-05T02:47:59.538Z,100999.75
2023-02-05T02:49:05.319Z,101004.91
2023-02-05T02:50:18.795Z,101003.16
2023-02-05T02:51:23.350Z,100999.69
2023-02-05T02:52:27.162Z,100989.34
2023-02-05T02:53:36.559Z,100990.25
2023-02-05T02:54:41.104Z,100993.69
2023-02-05T02:55:44.402Z,101001.50
2023-02-05T02:56:50.053Z,100992.97
2023-02-05T02:57:54.462Z,100994.69
2023-02-05T02:59:04.250Z,100993.00
2023-02-05T03:00:12.274Z,100978.41
2023-02-05T03:01:17.438Z,100992.94
2023-02-05T03:02:20.216Z,100988.75
2023-02-05T03:03:26.066Z,100991.41
2023-02-05T03:04:33.550Z,100992.25
2023-02-05T03:05:37.202Z,100987.91
2023-02-05T03:06:43.173Z,100986.16
2023-02-05T03:07:59.350Z,100983.56
2023-02-05T03:09:06.509Z,100983.56
2023-02-05T03:10:24.431Z,100983.56
2023-02-05T03:11:26.278Z,100991.31
2023-02-05T03:12:28.322Z,100983.59
2023-02-05T03:13:30.933Z,100985.34
2023-02-05T03:14:36.172Z,100989.59
2023-02-05T03:15:43.553Z,100981.78
2023-02-05T03:16:45.174Z,100987.84
2023-02-05T03:17:46.972Z,100988.72
2023-02-05T03:18:49.235Z,100993.88
2023-02-05T03:20:09.318Z,100997.31
2023-02-05T03:21:19.339Z,100992.16
2023-02-05T03:22:20.827Z,100994.72
2023-02-05T03:23:23.758Z,100998.16
2023-02-05T03:24:25.344Z,100995.56
2023-02-05T03:25:28.610Z,100992.97
2023-02-05T03:26:34.991Z,100998.97
2023-02-05T03:27:43.709Z,101001.56
2023-02-05T03:28:45.375Z,100995.50
2023-02-05T03:29:47.079Z,100998.97
2023-02-05T03:30:55.094Z,100996.41
2023-02-05T03:32:08.434Z,100999.81
2023-02-05T03:33:27.223Z,100989.56
2023-02-05T03:34:37.644Z,100994.66
2023-02-05T03:35:49.212Z,100992.94
2023-02-05T03:36:53.952Z,100997.28
2023-02-05T03:38:29.340Z,100999.91
2023-02-05T03:40:13.542Z,100994.75
2023-02-05T03:41:28.693Z,100993.03
2023-02-05T03:42:37.078Z,100993.03
2023-02-05T03:44:01.182Z,100990.44
2023-02-05T03:45:21.136Z,100993.00
2023-02-05T03:46:38.147Z,100994.75
2023-02-05T03:47:51.805Z,101001.63
2023-02-05T03:49:14.923Z,100998.19
2023-02-05T03:50:16.744Z,100999.91
2023-02-05T03:51:21.379Z,101007.66
2023-02-05T03:52:31.583Z,101011.94
2023-02-05T03:53:38.661Z,101006.81
2023-02-05T03:54:56.443Z,101008.50
2023-02-05T03:56:13.859Z,101011.13
2023-02-05T03:57:46.509Z,101005.97
2023-02-05T03:58:53.094Z,101011.06
2023-02-05T03:59:56.304Z,101010.25
2023-02-05T04:00:58.549Z,101010.25
2023-02-05T04:02:00.636Z,101011.97
2023-02-05T04:03:03.364Z,101016.28
2023-02-05T04:04:06.877Z,101017.13
2023-02-05T04:05:08.501Z,101018.00
2023-02-05T04:06:10.751Z,101020.56
2023-02-05T04:07:12.809Z,101022.31
2023-02-05T04:08:15.333Z,101028.31
2023-02-05T04:09:21.500Z,101018.00
2023-02-05T04:10:23.051Z,101015.38
2023-02-05T04:11:25.509Z,101017.91
2023-02-05T04:12:27.965Z,101021.34
2023-02-05T04:13:29.987Z,101016.19
2023-02-05T04:14:32.293Z,101026.53
2023-02-05T04:15:34.123Z,101019.69
2023-02-05T04:16:38.650Z,101023.13
2023-02-05T04:17:40.278Z,101027.44
2023-02-05T04:18:41.898Z,101017.97
2023-02-05T04:19:43.573Z,101019.69
2023-02-05T04:20:46.912Z,101021.44
2023-02-05T04:21:51.738Z,101017.13
2023-02-05T04:22:54.433Z,101020.53
2023-02-05T04:23:56.531Z,101024.84
2023-02-05T04:25:00.133Z,101025.69
2023-02-05T04:26:01.830Z,101027.41
2023-02-05T04:27:09.774Z,101027.38
2023-02-05T04:28:12.244Z,101030.81
2023-02-05T04:29:14.209Z,101028.28
2023-02-05T04:30:20.130Z,101036.00
2023-02-05T04:31:23.142Z,101036.88
2023-02-05T04:32:24.781Z,101026.56
2023-02-05T04:33:26.327Z,101023.97
2023-02-05T04:34:27.936Z,101024.81
2023-02-05T04:35:30.019Z,101026.53
2023-02-05T04:36:31.625Z,101027.41
2023-02-05T04:37:33.594Z,101030.00
2023-02-05T04:38:35.459Z,101027.44
2023-02-05T04:39:36.993Z,101031.75
2023-02-05T04:40:38.475Z,101030.03
2023-02-05T04:41:39.988Z,101033.47
2023-02-05T04:42:41.601Z,101033.47
2023-02-05T04:43:43.116Z,101032.59
2023-02-05T04:44:44.865Z,101028.31
2023-02-05T04:45:46.466Z,101035.16
2023-02-05T04:46:48.221Z,101034.31
2023-02-05T04:47:49.743Z,101036.03
2023-02-05T04:48:51.322Z,101038.59
2023-02-05T04:49:52.835Z,101031.72
2023-02-05T04:50:54.382Z,101032.53
2023-02-05T04:51:55.907Z,101039.41
2023-02-05T04:52:57.418Z,101035.09
2023-02-05T04:53:58.949Z,101039.44
2023-02-05T04:55:00.668Z,101038.56
2023-02-05T04:56:20.389Z,101048.88
2023-02-05T04:57:21.919Z,101043.75
2023-02-05T04:58:23.454Z,101050.63
2023-02-05T04:59:25.129Z,101045.50
2023-02-05T05:00:26.966Z,101044.59
2023-02-05T05:01:28.504Z,101044.66
2023-02-05T05:02:30.127Z,101044.66
2023-02-05T05:03:31.879Z,101056.69
2023-02-05T05:04:33.553Z,101056.69
2023-02-05T05:05:35.888Z,101048.13
2023-02-05T05:06:37.593Z,101050.72
2023-02-05T05:07:39.338Z,101049.00
2023-02-05T05:08:41.033Z,101059.31
2023-02-05T05:09:42.598Z,101060.19
2023-02-05T05:10:44.141Z,101059.34
2023-02-05T05:11:45.658Z,101061.06
2023-02-05T05:12:47.247Z,101055.09
2023-02-05T05:13:48.751Z,101066.25
2023-02-05T05:14:50.243Z,101061.13
2023-02-05T05:15:56.131Z,101057.72
2023-02-05T05:16:57.704Z,101067.16
2023-02-05T05:17:59.236Z,101067.16
2023-02-05T05:19:00.738Z,101072.31
2023-02-05T05:20:02.886Z,101070.59
2023-02-05T05:21:05.085Z,101072.31
2023-02-05T05:22:06.668Z,101081.75
2023-02-05T05:23:08.192Z,101078.31
2023-02-05T05:24:09.743Z,101083.47
2023-02-05T05:25:11.302Z,101077.47
2023-02-05T05:26:13.099Z,101086.06
2023-02-05T05:27:14.799Z,101084.34
2023-02-05T05:28:17.330Z,101080.91
2023-02-05T05:29:18.862Z,101082.66
2023-02-05T05:30:20.549Z,101077.50
2023-02-05T05:31:23.382Z,101081.78
2023-02-05T05:32:24.925Z,101086.94
2023-02-05T05:33:27.078Z,101086.09
2023-02-05T05:34:28.585Z,101082.66
2023-02-05T05:35:30.426Z,101082.66
2023-02-05T05:36:32.149Z,101083.53
2023-02-05T05:37:33.704Z,101087.81
2023-02-05T05:38:35.314Z,101097.25
2023-02-05T05:39:36.791Z,101099.00
2023-02-05T05:40:39.382Z,101096.41
2023-02-05T05:41:40.928Z,101105.88
2023-02-05T05:42:42.502Z,101110.16
2023-02-05T05:43:44.074Z,101110.16
2023-02-05T05:44:45.633Z,101107.56
2023-02-05T05:45:47.165Z,101112.72
2023-02-05T05:46:48.722Z,101110.13
2023-02-05T05:47:50.564Z,101110.16
2023-02-05T05:48:54.936Z,101115.28
2023-02-05T05:49:56.495Z,101112.72
2023-02-05T05:50:58.050Z,101109.28
2023-02-05T05:51:59.626Z,101112.69
2023-02-05T05:53:01.185Z,101113.53
2023-02-05T05:54:02.756Z,101122.16
2023-02-05T05:55:04.666Z,101116.13
2023-02-05T05:56:06.403Z,101117.84
2023-02-05T05:57:08.708Z,101124.72
2023-02-05T05:58:10.668Z,101118.72
2023-02-05T05:59:12.927Z,101123.88
2023-02-05T06:00:14.956Z,101123.00
2023-02-05T06:01:18.131Z,101129.84
2023-02-05T06:02:19.710Z,101127.28
2023-02-05T06:03:21.256Z,101136.75
2023-02-05T06:04:22.799Z,101140.19
2023-02-05T06:05:24.437Z,101142.78
2023-02-05T06:06:25.980Z,101145.38
2023-02-05T06:07:27.518Z,101147.91
2023-02-05T06:08:29.061Z,101151.38
2023-02-05T06:09:30.614Z,101151.38
2023-02-05T06:10:32.533Z,101145.34
2023-02-05T06:11:34.077Z,101155.66
2023-02-05T06:12:35.629Z,101141.06
2023-02-05T06:13:37.260Z,101156.50
2023-02-05T06:14:38.852Z,101153.91
2023-02-05T06:15:40.404Z,101153.06
2023-02-05T06:16:41.967Z,101160.81
2023-02-05T06:17:43.484Z,101161.66
2023-02-05T06:18:44.972Z,101160.81
2023-02-05T06:19:46.496Z,101163.38
2023-02-05T06:20:48.079Z,101161.66
2023-02-05T06:21:49.679Z,101166.81
2023-02-05T06:22:51.200Z,101173.69
2023-02-05T06:23:52.761Z,101164.25
2023-02-05T06:24:54.274Z,101177.16
2023-02-05T06:25:56.761Z,101170.25
2023-02-05T06:26:58.324Z,101177.97
2023-02-05T06:27:59.952Z,101175.41
2023-02-05T06:29:01.478Z,101168.50
2023-02-05T06:30:03.608Z,101171.06
2023-02-05T06:31:06.399Z,101171.06
2023-02-05T06:32:07.988Z,101169.31
2023-02-05T06:33:09.489Z,101174.50
2023-02-05T06:34:11.012Z,101176.22
2023-02-05T06:35:12.560Z,101172.78
2023-02-05T06:36:14.084Z,101178.78
2023-02-05T06:37:15.667Z,101177.88
2023-02-05T06:38:17.176Z,101179.56
2023-02-05T06:39:18.675Z,101186.38
2023-02-05T06:40:20.359Z,101183.75
2023-02-05T06:41:21.914Z,101179.41
2023-02-05T06:42:23.474Z,101179.44
2023-02-05T06:43:25.042Z,101178.56
2023-02-05T06:44:26.688Z,101178.50
2023-02-05T06:45:28.556Z,101174.22
2023-02-05T06:46:30.163Z,101183.69
2023-02-05T06:47:31.701Z,101176.84
2023-02-05T06:48:33.175Z,101177.75
2023-02-05T06:49:34.706Z,101168.31
2023-02-05T06:50:36.257Z,101175.19
2023-02-05T06:51:37.740Z,101170.91
2023-02-05T06:52:39.423Z,101176.09
2023-02-05T06:53:40.922Z,101174.41
2023-02-05T06:54:42.439Z,101168.38
2023-02-05T06:55:44.018Z,101176.16
2023-02-05T06:56:45.566Z,101181.31
2023-02-05T06:57:47.070Z,101172.69
2023-02-05T06:58:48.556Z,101175.28
2023-02-05T06:59:50.927Z,101174.44
2023-02-05T07:00:52.427Z,101176.16
2023-02-05T07:01:53.990Z,101177.88
2023-02-05T07:02:55.623Z,101184.78
2023-02-05T07:03:57.109Z,101180.53
2023-02-05T07:04:58.674Z,101183.09
2023-02-05T07:06:04.723Z,101180.50
2023-02-05T07:07:06.479Z,101188.22
2023-02-05T07:08:07.987Z,101183.97
2023-02-05T07:09:09.477Z,101183.06
2023-02-05T07:10:10.976Z,101185.69
2023-02-05T07:11:12.495Z,101186.56
2023-02-05T07:12:14.081Z,101192.56
2023-02-05T07:13:15.590Z,101195.16
2023-02-05T07:14:17.229Z,101196.84
2023-02-05T07:15:18.757Z,101190.84
2023-02-05T07:16:20.484Z,101201.22
2023-02-05T07:17:22.215Z,101195.22
2023-02-05T07:18:23.745Z,101199.50
2023-02-05T07:19:25.300Z,101205.50
2023-02-05T07:20:26.839Z,101205.50
2023-02-05T07:21:28.352Z,101212.38
2023-02-05T07:22:29.936Z,101209.78
2023-02-05T07:23:31.427Z,101213.25
2023-02-05T07:24:32.982Z,101215.84
2023-02-05T07:25:35.098Z,101216.69
2023-02-05T07:26:36.765Z,101215.81
2023-02-05T07:27:38.356Z,101202.94
2023-02-05T07:28:40.623Z,101214.94
2023-02-05T07:29:42.134Z,101214.94
2023-02-05T07:30:45.982Z,101213.22
2023-02-05T07:31:50.021Z,101216.69
2023-02-05T07:32:51.592Z,101217.53
2023-02-05T07:33:53.168Z,101216.66
2023-02-05T07:34:54.657Z,101216.66
2023-02-05T07:35:56.175Z,101222.66
2023-02-05T07:36:57.712Z,101213.19
2023-02-05T07:37:59.225Z,101223.50
2023-02-05T07:39:00.728Z,101218.34
2023-02-05T07:40:02.238Z,101224.34
2023-02-05T07:41:08.973Z,101217.47
2023-02-05T07:42:10.481Z,101220.88
2023-02-05T07:43:18.420Z,101218.31
2023-02-05T07:44:20.849Z,101216.56
2023-02-05T07:45:22.390Z,101213.16
2023-02-05T07:46:23.933Z,101207.94
2023-02-05T07:47:25.512Z,101210.41
2023-02-05T07:48:27.201Z,101215.41
2023-02-05T07:49:28.793Z,101214.41
2023-02-05T07:50:30.306Z,101203.00
2023-02-05T07:51:31.921Z,101202.78
2023-02-05T07:52:33.782Z,101209.47
2023-02-05T07:53:35.340Z,101207.63
2023-02-05T07:54:36.868Z,101202.22
2023-02-05T07:55:38.383Z,101203.06
2023-02-05T07:56:40.421Z,101214.19
2023-02-05T07:57:41.920Z,101214.78
2023-02-05T07:58:43.585Z,101218.81
2023-02-05T07:59:45.147Z,101222.94
2023-02-05T08:00:46.905Z,101225.41
2023-02-05T08:01:48.545Z,101223.81
2023-02-05T08:02:50.081Z,101223.03
2023-02-05T08:03:51.650Z,101220.47
2023-02-05T08:04:53.213Z,101222.06
2023-02-05T08:05:54.738Z,101221.81
2023-02-05T08:06:56.253Z,101221.94
2023-02-05T08:07:57.835Z,101221.03
2023-02-05T08:08:59.377Z,101218.28
2023-02-05T08:10:00.896Z,101223.75
2023-02-05T08:11:06.472Z,101220.34
2023-02-05T08:12:08.042Z,101219.63
2023-02-05T08:13:09.607Z,101224.88
2023-02-05T08:14:11.150Z,101230.94
2023-02-05T08:15:12.972Z,101227.34
2023-02-05T08:16:15.448Z,101223.09
2023-02-05T08:17:17.112Z,101224.44
2023-02-05T08:18:18.708Z,101229.03
2023-02-05T08:19:20.328Z,101235.06
2023-02-05T08:20:21.999Z,101235.16
2023-02-05T08:21:23.724Z,101234.41
2023-02-05T08:22:25.451Z,101235.44
2023-02-05T08:23:27.115Z,101232.06
2023-02-05T08:24:28.713Z,101240.66
2023-02-05T08:25:30.368Z,101241.53
2023-02-05T08:26:31.942Z,101240.88
2023-02-05T08:27:34.993Z,101240.94
2023-02-05T08:28:36.603Z,101227.22
2023-02-05T08:29:38.170Z,101225.66
2023-02-05T08:30:40.074Z,101237.72
2023-02-05T08:31:41.708Z,101235.97
2023-02-05T08:32:47.154Z,101234.25
2023-02-05T08:33:48.696Z,101235.94
2023-02-05T08:34:50.265Z,101234.19
2023-02-05T08:35:51.847Z,101229.91
2023-02-05T08:36:53.404Z,101239.38
2023-02-05T08:37:54.924Z,101237.66
2023-02-05T08:38:56.543Z,101235.97
2023-02-05T08:39:58.082Z,101236.88
2023-02-05T08:41:04.543Z,101247.03
2023-02-05T08:42:06.149Z,101249.31
2023-02-05T08:43:07.697Z,101240.22
2023-02-05T08:44:09.231Z,101240.47
2023-02-05T08:45:10.770Z,101237.28
2023-02-05T08:46:14.252Z,101242.88
2023-02-05T08:47:19.438Z,101239.34
2023-02-05T08:48:20.972Z,101244.59
2023-02-05T08:49:22.489Z,101242.03
2023-02-05T08:50:24.265Z,101246.59
2023-02-05T08:51:25.798Z,101245.53
2023-02-05T08:52:27.332Z,101237.94
2023-02-05T08:53:28.931Z,101245.78
2023-02-05T08:54:30.524Z,101237.66
2023-02-05T08:55:32.142Z,101234.63
2023-02-05T08:56:33.850Z,101242.50
2023-02-05T08:57:35.494Z,101241.22
2023-02-05T08:58:38.624Z,101249.44
2023-02-05T08:59:40.303Z,101245.59
2023-02-05T09:00:41.956Z,101248.63
2023-02-05T09:01:44.145Z,101241.66
2023-02-05T09:02:45.665Z,101250.66
2023-02-05T09:03:47.307Z,101248.97
2023-02-05T09:04:50.220Z,101245.81
2023-02-05T09:05:51.837Z,101248.78
2023-02-05T09:06:53.666Z,101248.25
2023-02-05T09:07:55.167Z,101252.84
2023-02-05T09:08:56.721Z,101246.03
2023-02-05T09:09:58.245Z,101246.16
2023-02-05T09:10:59.900Z,101253.16
2023-02-05T09:12:01.460Z,101246.91
2023-02-05T09:13:02.995Z,101250.63
2023-02-05T09:14:04.641Z,101248.03
2023-02-05T09:15:07.696Z,101252.50
2023-02-05T09:16:12.353Z,101251.88
2023-02-05T09:17:13.852Z,101252.97
2023-02-05T09:18:15.635Z,101258.50
2023-02-05T09:19:17.171Z,101260.34
2023-02-05T09:20:18.745Z,101254.31
2023-02-05T09:21:20.280Z,101257.00
2023-02-05T09:22:21.870Z,101262.41
2023-02-05T09:23:23.366Z,101250.34
2023-02-05T09:24:24.951Z,101258.13
2023-02-05T09:25:26.738Z,101256.22
2023-02-05T09:26:28.348Z,101258.69
2023-02-05T09:27:29.855Z,101256.03
2023-02-05T09:28:31.383Z,101263.06
2023-02-05T09:29:32.935Z,101269.25
2023-02-05T09:30:45.199Z,101268.47
2023-02-05T09:31:47.036Z,101268.69
2023-02-05T09:32:48.684Z,101268.97
2023-02-05T09:33:50.233Z,101264.03
2023-02-05T09:34:51.772Z,101275.38
2023-02-05T09:35:53.301Z,101271.94
2023-02-05T09:36:54.779Z,101272.91
2023-02-05T09:37:56.286Z,101275.53
2023-02-05T09:39:13.043Z,101279.78
2023-02-05T09:40:22.749Z,101278.94
2023-02-05T09:41:32.470Z,101268.56
2023-02-05T09:42:44.508Z,101272.16
2023-02-05T09:43:55.171Z,101271.44
2023-02-05T09:45:41.403Z,101275.81
2023-02-05T09:47:10.349Z,101271.53
2023-02-05T09:48:20.648Z,101274.09
2023-02-05T09:49:29.688Z,101277.56
2023-02-05T09:50:31.805Z,101268.09
2023-02-05T09:51:43.320Z,101268.00
2023-02-05T09:52:49.291Z,101263.72
2023-02-05T09:54:04.762Z,101262.81
2023-02-05T09:55:22.471Z,101265.41
2023-02-05T09:56:26.908Z,101269.72
2023-02-05T09:57:40.647Z,101272.25
2023-02-05T09:58:46.571Z,101268.72
2023-02-05T09:59:48.378Z,101265.28
2023-02-05T10:00:54.956Z,101262.63
2023-02-05T10:02:04.322Z,101260.88
2023-02-05T10:03:27.725Z,101255.53
2023-02-05T10:04:29.779Z,101252.84
2023-02-05T10:05:45.594Z,101259.72
2023-02-05T10:07:23.475Z,101243.31
2023-02-05T10:09:14.745Z,101263.88
2023-02-05T10:10:24.844Z,101257.88
2023-02-05T10:11:41.942Z,101251.91
2023-02-05T10:13:11.119Z,101254.50
2023-02-05T10:14:15.645Z,101254.69
2023-02-05T10:15:44.740Z,101254.81
2023-02-05T10:17:05.155Z,101251.41
2023-02-05T10:18:31.315Z,101250.53
2023-02-05T10:19:38.814Z,101240.97
2023-02-05T10:21:12.512Z,101241.59
2023-02-05T10:22:26.557Z,101238.06
2023-02-05T10:23:42.290Z,101242.28
2023-02-05T10:24:58.676Z,101241.41
2023-02-05T10:26:13.123Z,101236.31
2023-02-05T10:27:24.050Z,101237.34
2023-02-05T10:28:42.874Z,101243.44
2023-02-05T10:30:11.161Z,101241.66
2023-02-05T10:31:21.796Z,101242.53
2023-02-05T10:32:26.904Z,101247.75
2023-02-05T10:33:50.587Z,101249.31
2023-02-05T10:35:18.506Z,101240.03
2023-02-05T10:36:21.476Z,101250.59
2023-02-05T10:37:29.946Z,101249.03
2023-02-05T10:38:36.516Z,101255.13
2023-02-05T10:39:38.177Z,101249.09
2023-02-05T10:40:42.426Z,101252.56
2023-02-05T10:41:56.412Z,101254.47
2023-02-05T10:43:17.998Z,101257.94
2023-02-05T10:44:19.452Z,101258.84
2023-02-05T10:45:25.810Z,101256.28
2023-02-05T10:46:33.843Z,101249.41
2023-02-05T10:48:01.184Z,101254.53
2023-02-05T10:49:15.415Z,101252.78
2023-02-05T10:50:55.591Z,101256.34
2023-02-05T10:51:57.098Z,101249.59
2023-02-05T10:52:58.658Z,101253.06
2023-02-05T10:54:00.575Z,101255.69
2023-02-05T10:55:02.091Z,101254.81
2023-02-05T10:56:04.815Z,101247.06
2023-02-05T10:57:12.467Z,101245.28
2023-02-05T10:58:36.334Z,101244.44
2023-02-05T10:59:48.284Z,101253.06
2023-02-05T11:00:50.317Z,101251.38
2023-02-05T11:01:52.198Z,101246.25
2023-02-05T11:02:55.393Z,101242.81
2023-02-05T11:04:07.188Z,101244.50
2023-02-05T11:05:20.021Z,101251.38
2023-02-05T11:06:25.222Z,101246.28
2023-02-05T11:07:38.436Z,101246.25
2023-02-05T11:08:44.291Z,101236.78
2023-02-05T11:09:45.832Z,101235.97
2023-02-05T11:10:53.257Z,101244.59
2023-02-05T11:12:06.604Z,101243.75
2023-02-05T11:13:21.977Z,101250.66
2023-02-05T11:14:38.320Z,101246.31
2023-02-05T11:15:59.415Z,101242.06
2023-02-05T11:17:10.206Z,101244.66
2023-02-05T11:18:23.667Z,101245.53
2023-02-05T11:19:28.957Z,101244.66
2023-02-05T11:20:30.392Z,101244.69
2023-02-05T11:21:50.512Z,101236.09
2023-02-05T11:23:15.175Z,101244.72
2023-02-05T11:24:26.220Z,101237.84
2023-02-05T11:25:28.795Z,101243.03
2023-02-05T11:26:31.313Z,101245.59
2023-02-05T11:27:34.890Z,101243.88
2023-02-05T11:28:38.628Z,101251.63
2023-02-05T11:29:40.165Z,101254.19
2023-02-05T11:30:57.228Z,101246.50
2023-02-05T11:31:59.078Z,101247.34
2023-02-05T11:33:18.743Z,101249.06
2023-02-05T11:34:20.276Z,101241.34
2023-02-05T11:35:26.413Z,101242.16
2023-02-05T11:36:28.033Z,101247.25
2023-02-05T11:37:29.705Z,101243.78
2023-02-05T11:38:31.143Z,101244.69
2023-02-05T11:39:34.851Z,101238.66
2023-02-05T11:40:37.627Z,101236.06
2023-02-05T11:41:40.892Z,101239.53
2023-02-05T11:42:50.228Z,101235.22
2023-02-05T11:43:53.352Z,101242.09
2023-02-05T11:45:01.737Z,101237.75
2023-02-05T11:46:16.320Z,101239.50
2023-02-05T11:47:27.222Z,101230.84
2023-02-05T11:48:34.678Z,101233.44
2023-02-05T11:49:38.986Z,101227.41
2023-02-05T11:50:44.129Z,101233.47
2023-02-05T11:51:48.464Z,101232.66
2023-02-05T11:52:50.038Z,101232.66
2023-02-05T11:53:58.074Z,101228.38
2023-02-05T11:54:59.680Z,101236.97
2023-02-05T11:56:25.151Z,101226.63
2023-02-05T11:57:35.611Z,101227.47
2023-02-05T11:58:37.754Z,101226.63
2023-02-05T11:59:39.985Z,101222.28
2023-02-05T12:00:54.540Z,101223.97
2023-02-05T12:02:26.829Z,101222.22
2023-02-05T12:03:31.409Z,101220.47
2023-02-05T12:04:44.826Z,101224.75
2023-02-05T12:06:04.608Z,101228.19
2023-02-05T12:07:14.809Z,101235.09
2023-02-05T12:08:32.172Z,101229.09
2023-02-05T12:09:33.660Z,101233.38
2023-02-05T12:10:47.487Z,101235.06
2023-02-05T12:12:15.358Z,101234.19
2023-02-05T12:13:35.227Z,101228.22
2023-02-05T12:14:48.526Z,101228.22
2023-02-05T12:16:32.016Z,101224.75
2023-02-05T12:17:41.877Z,101229.91
2023-02-05T12:19:10.660Z,101234.19
2023-02-05T12:20:24.531Z,101238.50
2023-02-05T12:22:03.523Z,101236.81
2023-02-05T12:23:26.990Z,101234.28
2023-02-05T12:25:19.559Z,101227.41
2023-02-05T12:26:30.329Z,101236.94
2023-02-05T12:28:02.415Z,101227.47